Buoy 47557

sailwx.info

Track history (hours):
 
Tides and Currents Weather Stations Pressure Air Temp Water Temp Dewpoint Dewpoint Depression Visibility Wind Speed Wind Dir Waves Ship Positions

Drifting buoy 47557

Last reported at 2017-Feb-19 18:00 UTC. Time now 2017-Feb-19 18:46 UTC.
Position N 51°06' W 017°38'.

Barometer 1027.9 mb
Water temperature 11.7 ° C

Date/timePositionNaut miles runAvg speedWind from/ knotsBaromVisibWave heightAir tempDewpointWater temp
2017-Feb-19 18:00N 51°06' W 017°38'1 0.6 1027.9 11.7
2017-Feb-19 17:00N 51°05' W 017°38'1 0.7 1027.6 11.7
2017-Feb-19 16:00N 51°05' W 017°38'1 0.6 1027.6 11.6
2017-Feb-19 15:00N 51°04' W 017°38'1 0.6 1027.9 11.6
2017-Feb-19 14:00N 51°04' W 017°38'1 0.7 1028.0 11.6
2017-Feb-19 13:00N 51°03' W 017°39'0 0.0 1028.5 11.6
2017-Feb-19 12:00N 51°03' W 017°39'1 0.6 1028.4 11.6
2017-Feb-19 11:00N 51°02' W 017°39'1 0.6 1028.2 11.6
2017-Feb-19 10:00N 51°02' W 017°39'1 0.6 1027.6 11.6
2017-Feb-19 09:00N 51°01' W 017°39'0 0.4 1027.5 11.6
2017-Feb-19 08:00N 51°01' W 017°40'1 0.6 1026.9 11.6
2017-Feb-19 07:00N 51°01' W 017°40'1 0.7 1026.8 11.6
2017-Feb-19 06:00N 51°00' W 017°40'1 0.6 1026.1 11.6
2017-Feb-19 05:00N 50°59' W 017°40'1 0.6 1025.7 11.6
2017-Feb-19 04:00N 50°59' W 017°40'1 0.6 1025.9 11.6
2017-Feb-19 03:00N 50°58' W 017°40'1 0.6 1025.8 11.6
2017-Feb-19 02:00N 50°58' W 017°40'1 0.6 1025.7 11.6
2017-Feb-19 01:00N 50°57' W 017°40'0 0.4 1025.4 11.6
2017-Feb-19 00:00N 50°57' W 017°40'1 0.6 1025.1 11.6
2017-Feb-18 23:00N 50°56' W 017°40'1 0.6 1024.6 11.6
2017-Feb-18 22:00N 50°56' W 017°40'0 0.4 1024.0 11.6
2017-Feb-18 21:00N 50°56' W 017°39'1 0.3 1023.4 11.6
2017-Feb-18 19:00N 50°55' W 017°39'0 0.0 1022.5 11.6
2017-Feb-18 18:00N 50°55' W 017°39'1 0.6 1021.7 11.6
2017-Feb-18 17:00N 50°55' W 017°39'0 0.0 1021.1 11.6
2017-Feb-18 16:00N 50°55' W 017°39'0 0.4 1020.5 11.6
2017-Feb-18 15:00N 50°55' W 017°40'1 0.6 1020.3 11.6
2017-Feb-18 14:00N 50°54' W 017°40'0 0.0 1019.5 11.6
2017-Feb-18 13:00N 50°54' W 017°40'1 0.6 1020.0 11.6
2017-Feb-18 12:00N 50°53' W 017°40'0 0.0 1019.5 11.6
2017-Feb-18 11:00N 50°53' W 017°40'1 0.6 1019.6 11.6
2017-Feb-18 10:00N 50°53' W 017°40'1 0.6 1019.1 11.6
2017-Feb-18 09:00N 50°52' W 017°40'0 0.4 1019.0 11.6
2017-Feb-18 08:00N 50°52' W 017°40'1 0.6 1018.8 11.6
2017-Feb-18 07:00N 50°52' W 017°40'1 0.6 1018.6 11.6
2017-Feb-18 06:00N 50°51' W 017°40'1 0.6 1018.6 11.6
2017-Feb-18 05:00N 50°50' W 017°40'0 0.0 1018.4 11.5
2017-Feb-18 04:00N 50°50' W 017°40'1 0.7 1018.3 11.6
2017-Feb-18 03:00N 50°50' W 017°40'1 0.3 1018.2 11.6
2017-Feb-18 01:00N 50°49' W 017°40'0 0.4 1018.3 11.6
2017-Feb-18 00:00N 50°49' W 017°39'0 0.0 1018.5 11.6
2017-Feb-17 23:00N 50°49' W 017°39'0 0.0 1018.1 11.6
2017-Feb-17 22:00N 50°49' W 017°39'0 0.0 1017.6 11.6
2017-Feb-17 21:00N 50°49' W 017°39'1 0.7 1016.7 11.6
2017-Feb-17 20:00N 50°49' W 017°40'1 0.6 1016.1 11.6
2017-Feb-17 19:00N 50°48' W 017°40'0 0.0 1015.4 11.6
2017-Feb-17 18:00N 50°48' W 017°40'1 0.6 1014.5 11.6
2017-Feb-17 17:00N 50°47' W 017°40'0 0.0 1013.9 11.6
2017-Feb-17 16:00N 50°47' W 017°40'1 0.7 1013.2 11.6
2017-Feb-17 15:00N 50°47' W 017°39'0 0.0 1012.8 11.6
2017-Feb-17 14:00N 50°47' W 017°39'1 0.7 1012.7 11.6
2017-Feb-17 13:00N 50°46' W 017°38'0 0.0 1012.5 11.6
2017-Feb-17 12:00N 50°46' W 017°38'1 0.7 1012.3 11.6
2017-Feb-17 11:00N 50°46' W 017°38'0 0.0 1011.9 11.6
2017-Feb-17 10:00N 50°46' W 017°38'0 0.0 1011.8 11.6
2017-Feb-17 09:00N 50°46' W 017°38'1 0.6 1011.7 11.6
2017-Feb-17 08:00N 50°45' W 017°38'0 0.0 1011.2 11.6
2017-Feb-17 07:00N 50°45' W 017°38'1 0.6 1011.4 11.6
2017-Feb-17 06:00N 50°44' W 017°38'0 0.0 1011.3 11.6
2017-Feb-17 05:00N 50°44' W 017°38'1 0.6 1011.2 11.6
2017-Feb-17 04:00N 50°44' W 017°38'1 0.6 1011.4 11.6
2017-Feb-17 03:00N 50°43' W 017°38'0 0.0 1011.9 11.6
2017-Feb-17 02:00N 50°43' W 017°38'1 1.3 1012.4 11.6
2017-Feb-17 01:00N 50°42' W 017°37'0 0.0 1012.4 11.6
2017-Feb-17 00:00N 50°42' W 017°37'0 0.0 1012.7 11.6
2017-Feb-16 23:00N 50°42' W 017°37'1 0.7 1012.8 11.6
2017-Feb-16 22:00N 50°41' W 017°37'0 0.0 1013.3 11.6
2017-Feb-16 21:00N 50°41' W 017°37'0 0.0 1013.4 11.6
2017-Feb-16 20:00N 50°41' W 017°37'1 0.7 1014.1 11.6
2017-Feb-16 19:00N 50°41' W 017°36'0 0.0 1014.5 11.6
2017-Feb-16 18:00N 50°41' W 017°36'1 0.7 1015.1 11.6
2017-Feb-16 17:00N 50°40' W 017°37'1 0.6 1015.7 11.6
2017-Feb-16 16:00N 50°40' W 017°37'0 0.0 1016.4 11.6
2017-Feb-16 15:00N 50°40' W 017°37'1 0.7 1017.0 11.6
2017-Feb-16 14:00N 50°39' W 017°36'1 0.6 1018.1 11.6
2017-Feb-16 13:00N 50°38' W 017°36'1 0.7 1019.0 11.6
2017-Feb-16 12:00N 50°38' W 017°35'0 0.4 1019.5 11.6
2017-Feb-16 11:00N 50°38' W 017°35'1 0.6 1019.8 11.6
2017-Feb-16 10:00N 50°37' W 017°35'0 0.4 1019.8 11.6
2017-Feb-16 09:00N 50°37' W 017°34'1 0.7 1019.9 11.6
2017-Feb-16 08:00N 50°37' W 017°34'0 0.0 1019.8 11.6
2017-Feb-16 07:00N 50°37' W 017°34'1 0.7 1019.7 11.6
2017-Feb-16 06:00N 50°36' W 017°33'0 0.0 1020.2 11.6
2017-Feb-16 05:00N 50°36' W 017°33'1 0.6 1020.6 11.6
2017-Feb-16 04:00N 50°35' W 017°33'0 0.0 1020.9 11.6
2017-Feb-16 03:00N 50°35' W 017°33'0 0.4 1021.4 11.6
2017-Feb-16 02:00N 50°35' W 017°32'1 0.6 1021.5 11.6
2017-Feb-16 01:00N 50°35' W 017°32'0 0.0 1021.6 11.6
2017-Feb-16 00:00N 50°35' W 017°32'0 0.4 1021.6 11.6
2017-Feb-15 23:00N 50°35' W 017°32'0 0.0 1021.8 11.7
2017-Feb-15 22:00N 50°35' W 017°32'0 0.0 1021.7 11.7
2017-Feb-15 21:00N 50°35' W 017°32'1 0.6 1021.9 11.7
2017-Feb-15 20:00N 50°34' W 017°32'0 0.4 1021.8 11.7
2017-Feb-15 19:00N 50°34' W 017°31'0 0.0 1021.8 11.7
2017-Feb-15 18:00N 50°34' W 017°31'1 0.6 1021.4 11.7
2017-Feb-15 17:00N 50°34' W 017°31'0 0.0 1021.4 11.7
2017-Feb-15 16:00N 50°34' W 017°31'1 0.7 1021.4 11.7
2017-Feb-15 15:00N 50°33' W 017°31'0 0.0 1021.6 11.7
2017-Feb-15 14:00N 50°33' W 017°31'0 0.4 1021.7 11.7
2017-Feb-15 13:00N 50°33' W 017°30'1 0.7 1021.8 11.7
2017-Feb-15 12:00N 50°32' W 017°29'0 0.0 1021.5 11.7
2017-Feb-15 11:00N 50°32' W 017°29'0 0.4 1021.1 11.6
2017-Feb-15 10:00N 50°32' W 017°29'1 0.5 1020.4 11.6
2017-Feb-15 08:00N 50°32' W 017°28'1 0.7 1018.7 11.6
2017-Feb-15 07:00N 50°31' W 017°27'0 0.0 1017.7 11.6
2017-Feb-15 06:00N 50°31' W 017°27'1 0.7 1016.8 11.7
2017-Feb-15 05:00N 50°31' W 017°26'0 0.4 1016.3 11.6
2017-Feb-15 04:00N 50°31' W 017°26'1 0.7 1015.4 11.6
2017-Feb-15 03:00N 50°30' W 017°25'0 0.0 1014.6 11.6
2017-Feb-15 02:00N 50°30' W 017°25'0 0.4 1013.5 11.7
2017-Feb-15 01:00N 50°30' W 017°25'0 0.4 1012.5 11.7
2017-Feb-15 00:00N 50°30' W 017°24'1 1.0 1011.2 11.7
2017-Feb-14 23:00N 50°29' W 017°23'0 0.0 1009.9 11.7
2017-Feb-14 22:00N 50°29' W 017°23'0 0.4 1008.7 11.7
2017-Feb-14 21:00N 50°29' W 017°22'0 0.4 1007.1 11.6
2017-Feb-14 20:00N 50°29' W 017°22'0 0.0 1005.6 11.6
2017-Feb-14 19:00N 50°29' W 017°22'1 0.6 1004.1 11.6
2017-Feb-14 18:00N 50°29' W 017°22'0 0.4 1002.5 11.6
2017-Feb-14 17:00N 50°29' W 017°21'0 0.0 1001.4 11.6
2017-Feb-14 16:00N 50°29' W 017°21'1 0.6 1000.2 11.6
2017-Feb-14 15:00N 50°28' W 017°21'0 0.4 999.4 11.6
2017-Feb-14 14:00N 50°28' W 017°20'1 0.7 998.9 11.6
2017-Feb-14 13:00N 50°28' W 017°20'0 0.4 999.0 11.6
2017-Feb-14 12:00N 50°28' W 017°19'0 0.4 998.9 11.6
2017-Feb-14 11:00N 50°28' W 017°19'1 0.7 998.5 11.6
2017-Feb-14 10:00N 50°27' W 017°18'0 0.4 998.0 11.6
2017-Feb-14 09:00N 50°27' W 017°17'1 0.7 997.6 11.6
2017-Feb-14 08:00N 50°26' W 017°17'0 0.0 996.8 11.6
2017-Feb-14 07:00N 50°26' W 017°17'1 0.7 996.5 11.6
2017-Feb-14 06:00N 50°26' W 017°16'0 0.4 996.3 11.6
2017-Feb-14 05:00N 50°26' W 017°16'1 0.7 996.3 11.6
2017-Feb-14 04:00N 50°25' W 017°15'0 0.4 996.6 11.6
2017-Feb-14 03:00N 50°25' W 017°14'0 0.4 997.0 11.6
2017-Feb-14 02:00N 50°25' W 017°14'0 0.4 997.5 11.6
2017-Feb-14 01:00N 50°25' W 017°13'1 0.6 998.1 11.6
2017-Feb-14 00:00N 50°25' W 017°13'0 0.4 998.1 11.6
2017-Feb-13 23:00N 50°25' W 017°13'0 0.4 998.5 11.6
2017-Feb-13 22:00N 50°25' W 017°12'0 0.4 998.6 11.6
2017-Feb-13 21:00N 50°25' W 017°11'1 0.7 998.6 11.6
2017-Feb-13 20:00N 50°24' W 017°11'0 0.4 998.8 11.6
2017-Feb-13 19:00N 50°24' W 017°10'1 0.7 998.8 11.6
2017-Feb-13 18:00N 50°23' W 017°10'0 0.4 998.7 11.6
2017-Feb-13 17:00N 50°23' W 017°09'0 0.4 998.8 11.6
2017-Feb-13 16:00N 50°23' W 017°08'0 0.4 999.4 11.6
2017-Feb-13 15:00N 50°23' W 017°08'0 0.4 1000.1 11.6
2017-Feb-13 14:00N 50°23' W 017°07'0 0.4 1001.2 11.6
2017-Feb-13 13:00N 50°23' W 017°07'0 0.4 1002.2 11.6
2017-Feb-13 12:00N 50°23' W 017°06'1 0.7 1003.5 11.6
2017-Feb-13 11:00N 50°24' W 017°05'0 0.4 1003.9 11.6
2017-Feb-13 10:00N 50°24' W 017°05'0 0.4 1004.5 11.6
2017-Feb-13 09:00N 50°24' W 017°04'0 0.0 1004.9 11.6
2017-Feb-13 08:00N 50°24' W 017°04'0 0.4 1005.3 11.6
2017-Feb-13 07:00N 50°24' W 017°04'0 0.4 1005.7 11.6
2017-Feb-13 06:00N 50°24' W 017°03'1 0.6 1006.1 11.6
2017-Feb-13 05:00N 50°23' W 017°03'0 0.4 1006.8 11.6
2017-Feb-13 04:00N 50°23' W 017°02'0 0.4 1007.4 11.6
2017-Feb-13 03:00N 50°23' W 017°02'1 0.7 1008.3 11.6
2017-Feb-13 02:00N 50°23' W 017°01'1 0.7 1009.1 11.6
2017-Feb-13 01:00N 50°23' W 017°01'0 0.4 1010.1 11.6
2017-Feb-13 00:00N 50°23' W 017°00'1 0.8 1010.8 11.6
2017-Feb-12 23:00N 50°23' W 016°59'0 0.0 1011.6 11.6
2017-Feb-12 22:00N 50°23' W 016°59'0 0.4 1012.4 11.6
2017-Feb-12 21:00N 50°23' W 016°58'0 0.4 1013.7 11.6
2017-Feb-12 20:00N 50°23' W 016°58'1 1.0 1014.2 11.6
2017-Feb-12 19:00N 50°23' W 016°56'0 0.0 1014.6 11.6
2017-Feb-12 18:00N 50°23' W 016°56'0 0.4 1015.3 11.6
2017-Feb-12 17:00N 50°23' W 016°56'1 0.8 1015.9 11.6
2017-Feb-12 16:00N 50°23' W 016°55'0 0.4 1016.6 11.6
2017-Feb-12 15:00N 50°23' W 016°54'0 0.4 1017.6 11.7
2017-Feb-12 14:00N 50°23' W 016°53'0 0.4 1018.8 11.7
2017-Feb-12 13:00N 50°23' W 016°53'0 0.4 1020.1 11.7
2017-Feb-12 12:00N 50°23' W 016°52'1 1.0 1020.8 11.7
2017-Feb-12 11:00N 50°23' W 016°51'0 0.4 1021.5 11.7
2017-Feb-12 10:00N 50°23' W 016°50'1 1.0 1022.0 11.7
2017-Feb-12 09:00N 50°24' W 016°49'0 0.0 1022.2 11.7
2017-Feb-12 08:00N 50°24' W 016°49'0 0.4 1022.1 11.7
2017-Feb-12 07:00N 50°24' W 016°49'1 0.8 1022.6 11.7
2017-Feb-12 06:00N 50°24' W 016°47'0 0.4 1023.5 11.7
2017-Feb-12 05:00N 50°24' W 016°47'1 1.0 1023.9 11.7
2017-Feb-12 04:00N 50°25' W 016°46'0 0.4 1024.7 11.7
2017-Feb-12 03:00N 50°25' W 016°45'0 0.4 1025.7 11.7
2017-Feb-12 02:00N 50°25' W 016°44'1 0.7 1026.6 11.7
2017-Feb-12 01:00N 50°25' W 016°44'1 0.7 1027.4 11.7
2017-Feb-12 00:00N 50°26' W 016°43'0 0.4 1028.2 11.7
2017-Feb-11 23:00N 50°26' W 016°43'1 0.7 1028.9 11.7
2017-Feb-11 22:00N 50°26' W 016°42'1 0.7 1029.8 11.7
2017-Feb-11 21:00N 50°27' W 016°41'0 0.4 1030.4 11.7
2017-Feb-11 20:00N 50°27' W 016°41'0 0.4 1030.8 11.7
2017-Feb-11 19:00N 50°27' W 016°40'1 0.7 1030.9 11.7
2017-Feb-11 18:00N 50°28' W 016°40'0 0.4 1030.8 11.7
2017-Feb-11 17:00N 50°28' W 016°39'0 0.4 1030.8 11.7
2017-Feb-11 16:00N 50°28' W 016°38'0 0.4 1031.5 11.7
2017-Feb-11 15:00N 50°28' W 016°38'0 0.4 1032.1 11.7
2017-Feb-11 14:00N 50°28' W 016°37'1 0.7 1032.3 11.7
2017-Feb-11 13:00N 50°28' W 016°37'0 0.4 1032.3 11.7
2017-Feb-11 12:00N 50°28' W 016°36'1 0.7 1033.1 11.7
2017-Feb-11 11:00N 50°29' W 016°35'0 0.4 1032.7 11.7
2017-Feb-11 10:00N 50°29' W 016°35'0 0.0 1032.4 11.7
2017-Feb-11 09:00N 50°29' W 016°35'1 0.7 1032.0 11.7
2017-Feb-11 08:00N 50°29' W 016°34'0 0.4 1031.5 11.7
2017-Feb-11 07:00N 50°29' W 016°34'0 0.4 1030.6 11.7
2017-Feb-11 06:00N 50°29' W 016°33'0 0.4 1029.6 11.7
2017-Feb-11 05:00N 50°29' W 016°32'0 0.4 1029.2 11.7
2017-Feb-11 04:00N 50°29' W 016°32'1 0.8 1029.0 11.7
2017-Feb-11 03:00N 50°29' W 016°31'0 0.4 1028.5 11.7
2017-Feb-11 02:00N 50°29' W 016°30'0 0.4 1028.4 11.7
2017-Feb-11 01:00N 50°29' W 016°29'0 0.4 1028.4 11.7
2017-Feb-11 00:00N 50°29' W 016°29'0 0.4 1027.7 11.7
2017-Feb-10 23:00N 50°29' W 016°28'1 0.7 1027.0 11.7
2017-Feb-10 22:00N 50°30' W 016°28'1 0.7 1026.3 11.7
2017-Feb-10 21:00N 50°31' W 016°27'0 0.4 1025.8 11.7
2017-Feb-10 20:00N 50°31' W 016°26'0 0.4 1025.1 11.7
2017-Feb-10 19:00N 50°31' W 016°26'0 0.4 1024.0 11.7
2017-Feb-10 18:00N 50°31' W 016°25'0 0.4 1023.1 11.7
2017-Feb-10 17:00N 50°31' W 016°25'1 1.0 1022.6 11.7
2017-Feb-10 16:00N 50°31' W 016°23'0 0.0 1022.2 11.7
2017-Feb-10 15:00N 50°31' W 016°23'1 0.8 1021.4 11.7
2017-Feb-10 14:00N 50°31' W 016°22'0 0.4 1021.2 11.7
2017-Feb-10 13:00N 50°31' W 016°22'1 0.7 1021.2 11.7
2017-Feb-10 12:00N 50°32' W 016°21'1 0.4 1021.4 11.7
2017-Feb-10 10:00N 50°32' W 016°20'0 0.4 1020.3 11.6
2017-Feb-10 09:00N 50°32' W 016°20'1 0.4 1018.9 11.6
2017-Feb-10 06:00N 50°32' W 016°18'1 0.3 1016.0 11.6
2017-Feb-10 03:00N 50°31' W 016°17'0 0.0 1013.8 11.7
2017-Feb-10 02:00N 50°31' W 016°17'0 0.0 1012.8 11.7
2017-Feb-10 01:00N 50°31' W 016°17'1 0.7 1012.0 11.7
2017-Feb-10 00:00N 50°31' W 016°17'0 0.0 1010.5 11.7
2017-Feb-09 23:00N 50°31' W 016°17'0 0.4 1009.5 11.7
2017-Feb-09 22:00N 50°31' W 016°18'1 0.6 1008.3 11.7
2017-Feb-09 21:00N 50°30' W 016°18'1 0.6 1007.3 11.7
2017-Feb-09 20:00N 50°29' W 016°18'0 0.4 1006.3 11.7
2017-Feb-09 19:00N 50°29' W 016°17'1 0.7 1005.0 11.7
2017-Feb-09 18:00N 50°29' W 016°17'   1003.6 11.7
Track history (hours):
 
Tides and Currents Weather Stations Pressure Air Temp Water Temp Dewpoint Dewpoint Depression Visibility Wind Speed Wind Dir Waves Ship Positions

Drifting buoy 47557

Last reported at 2017-Feb-19 18:00 UTC. Time now 2017-Feb-19 18:46 UTC.
Position N 51°06' W 017°38'.

Barometer 1027.9 mb
Water temperature 11.7 ° C

Date/timePositionNaut miles runAvg speedWind from/ knotsBaromVisibWave heightAir tempDewpointWater temp
2017-Feb-19 18:00N 51°06' W 017°38'1 0.6 1027.9 11.7
2017-Feb-19 17:00N 51°05' W 017°38'1 0.7 1027.6 11.7
2017-Feb-19 16:00N 51°05' W 017°38'1 0.6 1027.6 11.6
2017-Feb-19 15:00N 51°04' W 017°38'1 0.6 1027.9 11.6
2017-Feb-19 14:00N 51°04' W 017°38'1 0.7 1028.0 11.6
2017-Feb-19 13:00N 51°03' W 017°39'0 0.0 1028.5 11.6
2017-Feb-19 12:00N 51°03' W 017°39'1 0.6 1028.4 11.6
2017-Feb-19 11:00N 51°02' W 017°39'1 0.6 1028.2 11.6
2017-Feb-19 10:00N 51°02' W 017°39'1 0.6 1027.6 11.6
2017-Feb-19 09:00N 51°01' W 017°39'0 0.4 1027.5 11.6
2017-Feb-19 08:00N 51°01' W 017°40'1 0.6 1026.9 11.6
2017-Feb-19 07:00N 51°01' W 017°40'1 0.7 1026.8 11.6
2017-Feb-19 06:00N 51°00' W 017°40'1 0.6 1026.1 11.6
2017-Feb-19 05:00N 50°59' W 017°40'1 0.6 1025.7 11.6
2017-Feb-19 04:00N 50°59' W 017°40'1 0.6 1025.9 11.6
2017-Feb-19 03:00N 50°58' W 017°40'1 0.6 1025.8 11.6
2017-Feb-19 02:00N 50°58' W 017°40'1 0.6 1025.7 11.6
2017-Feb-19 01:00N 50°57' W 017°40'0 0.4 1025.4 11.6
2017-Feb-19 00:00N 50°57' W 017°40'1 0.6 1025.1 11.6
2017-Feb-18 23:00N 50°56' W 017°40'1 0.6 1024.6 11.6
2017-Feb-18 22:00N 50°56' W 017°40'0 0.4 1024.0 11.6
2017-Feb-18 21:00N 50°56' W 017°39'1 0.3 1023.4 11.6
2017-Feb-18 19:00N 50°55' W 017°39'0 0.0 1022.5 11.6
2017-Feb-18 18:00N 50°55' W 017°39'1 0.6 1021.7 11.6
2017-Feb-18 17:00N 50°55' W 017°39'0 0.0 1021.1 11.6
2017-Feb-18 16:00N 50°55' W 017°39'0 0.4 1020.5 11.6
2017-Feb-18 15:00N 50°55' W 017°40'1 0.6 1020.3 11.6
2017-Feb-18 14:00N 50°54' W 017°40'0 0.0 1019.5 11.6
2017-Feb-18 13:00N 50°54' W 017°40'1 0.6 1020.0 11.6
2017-Feb-18 12:00N 50°53' W 017°40'0 0.0 1019.5 11.6
2017-Feb-18 11:00N 50°53' W 017°40'1 0.6 1019.6 11.6
2017-Feb-18 10:00N 50°53' W 017°40'1 0.6 1019.1 11.6
2017-Feb-18 09:00N 50°52' W 017°40'0 0.4 1019.0 11.6
2017-Feb-18 08:00N 50°52' W 017°40'1 0.6 1018.8 11.6
2017-Feb-18 07:00N 50°52' W 017°40'1 0.6 1018.6 11.6
2017-Feb-18 06:00N 50°51' W 017°40'1 0.6 1018.6 11.6
2017-Feb-18 05:00N 50°50' W 017°40'0 0.0 1018.4 11.5
2017-Feb-18 04:00N 50°50' W 017°40'1 0.7 1018.3 11.6
2017-Feb-18 03:00N 50°50' W 017°40'1 0.3 1018.2 11.6
2017-Feb-18 01:00N 50°49' W 017°40'0 0.4 1018.3 11.6
2017-Feb-18 00:00N 50°49' W 017°39'0 0.0 1018.5 11.6
2017-Feb-17 23:00N 50°49' W 017°39'0 0.0 1018.1 11.6
2017-Feb-17 22:00N 50°49' W 017°39'0 0.0 1017.6 11.6
2017-Feb-17 21:00N 50°49' W 017°39'1 0.7 1016.7 11.6
2017-Feb-17 20:00N 50°49' W 017°40'1 0.6 1016.1 11.6
2017-Feb-17 19:00N 50°48' W 017°40'0 0.0 1015.4 11.6
2017-Feb-17 18:00N 50°48' W 017°40'1 0.6 1014.5 11.6
2017-Feb-17 17:00N 50°47' W 017°40'0 0.0 1013.9 11.6
2017-Feb-17 16:00N 50°47' W 017°40'1 0.7 1013.2 11.6
2017-Feb-17 15:00N 50°47' W 017°39'0 0.0 1012.8 11.6
2017-Feb-17 14:00N 50°47' W 017°39'1 0.7 1012.7 11.6
2017-Feb-17 13:00N 50°46' W 017°38'0 0.0 1012.5 11.6
2017-Feb-17 12:00N 50°46' W 017°38'1 0.7 1012.3 11.6
2017-Feb-17 11:00N 50°46' W 017°38'0 0.0 1011.9 11.6
2017-Feb-17 10:00N 50°46' W 017°38'0 0.0 1011.8 11.6
2017-Feb-17 09:00N 50°46' W 017°38'1 0.6 1011.7 11.6
2017-Feb-17 08:00N 50°45' W 017°38'0 0.0 1011.2 11.6
2017-Feb-17 07:00N 50°45' W 017°38'1 0.6 1011.4 11.6
2017-Feb-17 06:00N 50°44' W 017°38'0 0.0 1011.3 11.6
2017-Feb-17 05:00N 50°44' W 017°38'1 0.6 1011.2 11.6
2017-Feb-17 04:00N 50°44' W 017°38'1 0.6 1011.4 11.6
2017-Feb-17 03:00N 50°43' W 017°38'0 0.0 1011.9 11.6
2017-Feb-17 02:00N 50°43' W 017°38'1 1.3 1012.4 11.6
2017-Feb-17 01:00N 50°42' W 017°37'0 0.0 1012.4 11.6
2017-Feb-17 00:00N 50°42' W 017°37'0 0.0 1012.7 11.6
2017-Feb-16 23:00N 50°42' W 017°37'1 0.7 1012.8 11.6
2017-Feb-16 22:00N 50°41' W 017°37'0 0.0 1013.3 11.6
2017-Feb-16 21:00N 50°41' W 017°37'0 0.0 1013.4 11.6
2017-Feb-16 20:00N 50°41' W 017°37'1 0.7 1014.1 11.6
2017-Feb-16 19:00N 50°41' W 017°36'0 0.0 1014.5 11.6
2017-Feb-16 18:00N 50°41' W 017°36'1 0.7 1015.1 11.6
2017-Feb-16 17:00N 50°40' W 017°37'1 0.6 1015.7 11.6
2017-Feb-16 16:00N 50°40' W 017°37'0 0.0 1016.4 11.6
2017-Feb-16 15:00N 50°40' W 017°37'1 0.7 1017.0 11.6
2017-Feb-16 14:00N 50°39' W 017°36'1 0.6 1018.1 11.6
2017-Feb-16 13:00N 50°38' W 017°36'1 0.7 1019.0 11.6
2017-Feb-16 12:00N 50°38' W 017°35'0 0.4 1019.5 11.6
2017-Feb-16 11:00N 50°38' W 017°35'1 0.6 1019.8 11.6
2017-Feb-16 10:00N 50°37' W 017°35'0 0.4 1019.8 11.6
2017-Feb-16 09:00N 50°37' W 017°34'1 0.7 1019.9 11.6
2017-Feb-16 08:00N 50°37' W 017°34'0 0.0 1019.8 11.6
2017-Feb-16 07:00N 50°37' W 017°34'1 0.7 1019.7 11.6
2017-Feb-16 06:00N 50°36' W 017°33'0 0.0 1020.2 11.6
2017-Feb-16 05:00N 50°36' W 017°33'1 0.6 1020.6 11.6
2017-Feb-16 04:00N 50°35' W 017°33'0 0.0 1020.9 11.6
2017-Feb-16 03:00N 50°35' W 017°33'0 0.4 1021.4 11.6
2017-Feb-16 02:00N 50°35' W 017°32'1 0.6 1021.5 11.6
2017-Feb-16 01:00N 50°35' W 017°32'0 0.0 1021.6 11.6
2017-Feb-16 00:00N 50°35' W 017°32'0 0.4 1021.6 11.6
2017-Feb-15 23:00N 50°35' W 017°32'0 0.0 1021.8 11.7
2017-Feb-15 22:00N 50°35' W 017°32'0 0.0 1021.7 11.7
2017-Feb-15 21:00N 50°35' W 017°32'1 0.6 1021.9 11.7
2017-Feb-15 20:00N 50°34' W 017°32'0 0.4 1021.8 11.7
2017-Feb-15 19:00N 50°34' W 017°31'0 0.0 1021.8 11.7
2017-Feb-15 18:00N 50°34' W 017°31'1 0.6 1021.4 11.7
2017-Feb-15 17:00N 50°34' W 017°31'0 0.0 1021.4 11.7
2017-Feb-15 16:00N 50°34' W 017°31'1 0.7 1021.4 11.7
2017-Feb-15 15:00N 50°33' W 017°31'0 0.0 1021.6 11.7
2017-Feb-15 14:00N 50°33' W 017°31'0 0.4 1021.7 11.7
2017-Feb-15 13:00N 50°33' W 017°30'1 0.7 1021.8 11.7
2017-Feb-15 12:00N 50°32' W 017°29'0 0.0 1021.5 11.7
2017-Feb-15 11:00N 50°32' W 017°29'0 0.4 1021.1 11.6
2017-Feb-15 10:00N 50°32' W 017°29'1 0.5 1020.4 11.6
2017-Feb-15 08:00N 50°32' W 017°28'1 0.7 1018.7 11.6
2017-Feb-15 07:00N 50°31' W 017°27'0 0.0 1017.7 11.6
2017-Feb-15 06:00N 50°31' W 017°27'1 0.7 1016.8 11.7
2017-Feb-15 05:00N 50°31' W 017°26'0 0.4 1016.3 11.6
2017-Feb-15 04:00N 50°31' W 017°26'1 0.7 1015.4 11.6
2017-Feb-15 03:00N 50°30' W 017°25'0 0.0 1014.6 11.6
2017-Feb-15 02:00N 50°30' W 017°25'0 0.4 1013.5 11.7
2017-Feb-15 01:00N 50°30' W 017°25'0 0.4 1012.5 11.7
2017-Feb-15 00:00N 50°30' W 017°24'1 1.0 1011.2 11.7
2017-Feb-14 23:00N 50°29' W 017°23'0 0.0 1009.9 11.7
2017-Feb-14 22:00N 50°29' W 017°23'0 0.4 1008.7 11.7
2017-Feb-14 21:00N 50°29' W 017°22'0 0.4 1007.1 11.6
2017-Feb-14 20:00N 50°29' W 017°22'0 0.0 1005.6 11.6
2017-Feb-14 19:00N 50°29' W 017°22'1 0.6 1004.1 11.6
2017-Feb-14 18:00N 50°29' W 017°22'0 0.4 1002.5 11.6
2017-Feb-14 17:00N 50°29' W 017°21'0 0.0 1001.4 11.6
2017-Feb-14 16:00N 50°29' W 017°21'1 0.6 1000.2 11.6
2017-Feb-14 15:00N 50°28' W 017°21'0 0.4 999.4 11.6
2017-Feb-14 14:00N 50°28' W 017°20'1 0.7 998.9 11.6
2017-Feb-14 13:00N 50°28' W 017°20'0 0.4 999.0 11.6
2017-Feb-14 12:00N 50°28' W 017°19'0 0.4 998.9 11.6
2017-Feb-14 11:00N 50°28' W 017°19'1 0.7 998.5 11.6
2017-Feb-14 10:00N 50°27' W 017°18'0 0.4 998.0 11.6
2017-Feb-14 09:00N 50°27' W 017°17'1 0.7 997.6 11.6
2017-Feb-14 08:00N 50°26' W 017°17'0 0.0 996.8 11.6
2017-Feb-14 07:00N 50°26' W 017°17'1 0.7 996.5 11.6
2017-Feb-14 06:00N 50°26' W 017°16'0 0.4 996.3 11.6
2017-Feb-14 05:00N 50°26' W 017°16'1 0.7 996.3 11.6
2017-Feb-14 04:00N 50°25' W 017°15'0 0.4 996.6 11.6
2017-Feb-14 03:00N 50°25' W 017°14'0 0.4 997.0 11.6
2017-Feb-14 02:00N 50°25' W 017°14'0 0.4 997.5 11.6
2017-Feb-14 01:00N 50°25' W 017°13'1 0.6 998.1 11.6
2017-Feb-14 00:00N 50°25' W 017°13'0 0.4 998.1 11.6
2017-Feb-13 23:00N 50°25' W 017°13'0 0.4 998.5 11.6
2017-Feb-13 22:00N 50°25' W 017°12'0 0.4 998.6 11.6
2017-Feb-13 21:00N 50°25' W 017°11'1 0.7 998.6 11.6
2017-Feb-13 20:00N 50°24' W 017°11'0 0.4 998.8 11.6
2017-Feb-13 19:00N 50°24' W 017°10'1 0.7 998.8 11.6
2017-Feb-13 18:00N 50°23' W 017°10'0 0.4 998.7 11.6
2017-Feb-13 17:00N 50°23' W 017°09'0 0.4 998.8 11.6
2017-Feb-13 16:00N 50°23' W 017°08'0 0.4 999.4 11.6
2017-Feb-13 15:00N 50°23' W 017°08'0 0.4 1000.1 11.6
2017-Feb-13 14:00N 50°23' W 017°07'0 0.4 1001.2 11.6
2017-Feb-13 13:00N 50°23' W 017°07'0 0.4 1002.2 11.6
2017-Feb-13 12:00N 50°23' W 017°06'1 0.7 1003.5 11.6
2017-Feb-13 11:00N 50°24' W 017°05'0 0.4 1003.9 11.6
2017-Feb-13 10:00N 50°24' W 017°05'0 0.4 1004.5 11.6
2017-Feb-13 09:00N 50°24' W 017°04'0 0.0 1004.9 11.6
2017-Feb-13 08:00N 50°24' W 017°04'0 0.4 1005.3 11.6
2017-Feb-13 07:00N 50°24' W 017°04'0 0.4 1005.7 11.6
2017-Feb-13 06:00N 50°24' W 017°03'1 0.6 1006.1 11.6
2017-Feb-13 05:00N 50°23' W 017°03'0 0.4 1006.8 11.6
2017-Feb-13 04:00N 50°23' W 017°02'0 0.4 1007.4 11.6
2017-Feb-13 03:00N 50°23' W 017°02'1 0.7 1008.3 11.6
2017-Feb-13 02:00N 50°23' W 017°01'1 0.7 1009.1 11.6
2017-Feb-13 01:00N 50°23' W 017°01'0 0.4 1010.1 11.6
2017-Feb-13 00:00N 50°23' W 017°00'1 0.8 1010.8 11.6
2017-Feb-12 23:00N 50°23' W 016°59'0 0.0 1011.6 11.6
2017-Feb-12 22:00N 50°23' W 016°59'0 0.4 1012.4 11.6
2017-Feb-12 21:00N 50°23' W 016°58'0 0.4 1013.7 11.6
2017-Feb-12 20:00N 50°23' W 016°58'1 1.0 1014.2 11.6
2017-Feb-12 19:00N 50°23' W 016°56'0 0.0 1014.6 11.6
2017-Feb-12 18:00N 50°23' W 016°56'0 0.4 1015.3 11.6
2017-Feb-12 17:00N 50°23' W 016°56'1 0.8 1015.9 11.6
2017-Feb-12 16:00N 50°23' W 016°55'0 0.4 1016.6 11.6
2017-Feb-12 15:00N 50°23' W 016°54'0 0.4 1017.6 11.7
2017-Feb-12 14:00N 50°23' W 016°53'0 0.4 1018.8 11.7
2017-Feb-12 13:00N 50°23' W 016°53'0 0.4 1020.1 11.7
2017-Feb-12 12:00N 50°23' W 016°52'1 1.0 1020.8 11.7
2017-Feb-12 11:00N 50°23' W 016°51'0 0.4 1021.5 11.7
2017-Feb-12 10:00N 50°23' W 016°50'1 1.0 1022.0 11.7
2017-Feb-12 09:00N 50°24' W 016°49'0 0.0 1022.2 11.7
2017-Feb-12 08:00N 50°24' W 016°49'0 0.4 1022.1 11.7
2017-Feb-12 07:00N 50°24' W 016°49'1 0.8 1022.6 11.7
2017-Feb-12 06:00N 50°24' W 016°47'0 0.4 1023.5 11.7
2017-Feb-12 05:00N 50°24' W 016°47'1 1.0 1023.9 11.7
2017-Feb-12 04:00N 50°25' W 016°46'0 0.4 1024.7 11.7
2017-Feb-12 03:00N 50°25' W 016°45'0 0.4 1025.7 11.7
2017-Feb-12 02:00N 50°25' W 016°44'1 0.7 1026.6 11.7
2017-Feb-12 01:00N 50°25' W 016°44'1 0.7 1027.4 11.7
2017-Feb-12 00:00N 50°26' W 016°43'0 0.4 1028.2 11.7
2017-Feb-11 23:00N 50°26' W 016°43'1 0.7 1028.9 11.7
2017-Feb-11 22:00N 50°26' W 016°42'1 0.7 1029.8 11.7
2017-Feb-11 21:00N 50°27' W 016°41'0 0.4 1030.4 11.7
2017-Feb-11 20:00N 50°27' W 016°41'0 0.4 1030.8 11.7
2017-Feb-11 19:00N 50°27' W 016°40'1 0.7 1030.9 11.7
2017-Feb-11 18:00N 50°28' W 016°40'0 0.4 1030.8 11.7
2017-Feb-11 17:00N 50°28' W 016°39'0 0.4 1030.8 11.7
2017-Feb-11 16:00N 50°28' W 016°38'0 0.4 1031.5 11.7
2017-Feb-11 15:00N 50°28' W 016°38'0 0.4 1032.1 11.7
2017-Feb-11 14:00N 50°28' W 016°37'1 0.7 1032.3 11.7
2017-Feb-11 13:00N 50°28' W 016°37'0 0.4 1032.3 11.7
2017-Feb-11 12:00N 50°28' W 016°36'1 0.7 1033.1 11.7
2017-Feb-11 11:00N 50°29' W 016°35'0 0.4 1032.7 11.7
2017-Feb-11 10:00N 50°29' W 016°35'0 0.0 1032.4 11.7
2017-Feb-11 09:00N 50°29' W 016°35'1 0.7 1032.0 11.7
2017-Feb-11 08:00N 50°29' W 016°34'0 0.4 1031.5 11.7
2017-Feb-11 07:00N 50°29' W 016°34'0 0.4 1030.6 11.7
2017-Feb-11 06:00N 50°29' W 016°33'0 0.4 1029.6 11.7
2017-Feb-11 05:00N 50°29' W 016°32'0 0.4 1029.2 11.7
2017-Feb-11 04:00N 50°29' W 016°32'1 0.8 1029.0 11.7
2017-Feb-11 03:00N 50°29' W 016°31'0 0.4 1028.5 11.7
2017-Feb-11 02:00N 50°29' W 016°30'0 0.4 1028.4 11.7
2017-Feb-11 01:00N 50°29' W 016°29'0 0.4 1028.4 11.7
2017-Feb-11 00:00N 50°29' W 016°29'0 0.4 1027.7 11.7
2017-Feb-10 23:00N 50°29' W 016°28'1 0.7 1027.0 11.7
2017-Feb-10 22:00N 50°30' W 016°28'1 0.7 1026.3 11.7
2017-Feb-10 21:00N 50°31' W 016°27'0 0.4 1025.8 11.7
2017-Feb-10 20:00N 50°31' W 016°26'0 0.4 1025.1 11.7
2017-Feb-10 19:00N 50°31' W 016°26'0 0.4 1024.0 11.7
2017-Feb-10 18:00N 50°31' W 016°25'0 0.4 1023.1 11.7
2017-Feb-10 17:00N 50°31' W 016°25'1 1.0 1022.6 11.7
2017-Feb-10 16:00N 50°31' W 016°23'0 0.0 1022.2 11.7
2017-Feb-10 15:00N 50°31' W 016°23'1 0.8 1021.4 11.7
2017-Feb-10 14:00N 50°31' W 016°22'0 0.4 1021.2 11.7
2017-Feb-10 13:00N 50°31' W 016°22'1 0.7 1021.2 11.7
2017-Feb-10 12:00N 50°32' W 016°21'1 0.4 1021.4 11.7
2017-Feb-10 10:00N 50°32' W 016°20'0 0.4 1020.3 11.6
2017-Feb-10 09:00N 50°32' W 016°20'1 0.4 1018.9 11.6
2017-Feb-10 06:00N 50°32' W 016°18'1 0.3 1016.0 11.6
2017-Feb-10 03:00N 50°31' W 016°17'0 0.0 1013.8 11.7
2017-Feb-10 02:00N 50°31' W 016°17'0 0.0 1012.8 11.7
2017-Feb-10 01:00N 50°31' W 016°17'1 0.7 1012.0 11.7
2017-Feb-10 00:00N 50°31' W 016°17'0 0.0 1010.5 11.7
2017-Feb-09 23:00N 50°31' W 016°17'0 0.4 1009.5 11.7
2017-Feb-09 22:00N 50°31' W 016°18'1 0.6 1008.3 11.7
2017-Feb-09 21:00N 50°30' W 016°18'1 0.6 1007.3 11.7
2017-Feb-09 20:00N 50°29' W 016°18'0 0.4 1006.3 11.7
2017-Feb-09 19:00N 50°29' W 016°17'1 0.7 1005.0 11.7
2017-Feb-09 18:00N 50°29' W 016°17'   1003.6 11.7

Dump ship's entire track history